createdAt,value
2023-04-24T05:03:21.170Z,98583.78
2023-04-24T05:05:53.351Z,98591.19
2023-04-24T05:08:27.134Z,98602.56
2023-04-24T05:10:56.633Z,98598.97
2023-04-24T05:13:38.504Z,98598.97
2023-04-24T05:16:18.978Z,98604.84
2023-04-24T05:18:46.078Z,98594.56
2023-04-24T05:21:16.027Z,98586.84
2023-04-24T05:23:46.097Z,98587.75
2023-04-24T05:26:17.476Z,98603.31
2023-04-24T05:28:44.230Z,98587.44
2023-04-24T05:31:15.265Z,98587.63
2023-04-24T05:33:41.966Z,98593.63
2023-04-24T05:36:09.267Z,98586.69
2023-04-24T05:38:36.367Z,98592.66
2023-04-24T05:41:03.634Z,98597.81
2023-04-24T05:43:30.178Z,98592.28
2023-04-24T05:45:57.439Z,98608.16
2023-04-24T05:48:24.398Z,98605.59
2023-04-24T05:50:52.097Z,98612.38
2023-04-24T05:53:18.912Z,98604.72
2023-04-24T05:55:46.699Z,98608.09
2023-04-24T05:58:13.439Z,98612.63
2023-04-24T06:00:43.843Z,98606.34
2023-04-24T06:03:10.854Z,98610.56
2023-04-24T06:05:38.373Z,98607.13
2023-04-24T06:08:05.228Z,98609.78
2023-04-24T06:10:36.957Z,98602.78
2023-04-24T06:13:04.741Z,98606.34
2023-04-24T06:15:33.609Z,98614.59
2023-04-24T06:18:05.797Z,98618.03
2023-04-24T06:20:33.858Z,98613.56
2023-04-24T06:23:03.060Z,98616.59
2023-04-24T06:25:30.360Z,98613.41
2023-04-24T06:27:57.453Z,98619.19
2023-04-24T06:30:24.736Z,98614.13
2023-04-24T06:32:51.876Z,98619.44
2023-04-24T06:35:19.136Z,98625.72
2023-04-24T06:37:47.378Z,98624.41
2023-04-24T06:40:14.319Z,98614.53
2023-04-24T06:42:41.029Z,98619.25
2023-04-24T06:45:09.562Z,98624.78
2023-04-24T06:47:36.329Z,98614.91
2023-04-24T06:50:03.700Z,98621.06
2023-04-24T06:52:33.684Z,98619.09
2023-04-24T06:55:04.829Z,98620.72
2023-04-24T06:57:32.334Z,98625.53
2023-04-24T06:59:59.748Z,98625.34
2023-04-24T07:02:26.542Z,98615.50
2023-04-24T07:04:54.243Z,98627.66
2023-04-24T07:07:23.528Z,98625.16
2023-04-24T07:09:52.269Z,98625.34
2023-04-24T07:12:21.464Z,98629.81
2023-04-24T07:14:49.328Z,98623.28
2023-04-24T07:17:15.965Z,98622.69
2023-04-24T07:19:43.574Z,98619.69
2023-04-24T07:22:12.478Z,98621.56
2023-04-24T07:24:39.633Z,98625.47
2023-04-24T07:27:06.347Z,98627.34
2023-04-24T07:29:33.538Z,98626.69
2023-04-24T07:32:01.469Z,98623.09
2023-04-24T07:34:29.921Z,98634.75
2023-04-24T07:36:56.600Z,98626.03
2023-04-24T07:39:24.481Z,98633.81
2023-04-24T07:41:51.071Z,98637.34
2023-04-24T07:44:18.292Z,98633.19
2023-04-24T07:46:44.908Z,98640.19
2023-04-24T07:49:14.232Z,98646.47
2023-04-24T07:51:42.197Z,98640.97
2023-04-24T07:54:09.596Z,98649.50
2023-04-24T07:56:39.735Z,98644.41
2023-04-24T07:59:07.405Z,98647.44
2023-04-24T08:01:34.023Z,98655.41
2023-04-24T08:04:01.529Z,98646.00
2023-04-24T08:06:31.343Z,98652.41
2023-04-24T08:09:01.534Z,98646.69
2023-04-24T08:11:28.460Z,98648.44
2023-04-24T08:13:56.284Z,98650.13
2023-04-24T08:16:25.055Z,98655.25
2023-04-24T08:18:53.120Z,98654.66
2023-04-24T08:21:19.969Z,98666.47
2023-04-24T08:23:47.839Z,98670.06
2023-04-24T08:26:14.728Z,98667.78
2023-04-24T08:28:42.076Z,98661.09
2023-04-24T08:31:08.784Z,98668.69
2023-04-24T08:33:36.312Z,98673.53
2023-04-24T08:36:04.704Z,98676.75
2023-04-24T08:38:31.978Z,98663.75
2023-04-24T08:41:01.150Z,98678.66
2023-04-24T08:43:29.143Z,98676.16
2023-04-24T08:46:00.759Z,98665.72
2023-04-24T08:48:31.721Z,98671.88
2023-04-24T08:51:00.396Z,98669.44
2023-04-24T08:53:28.219Z,98669.34
2023-04-24T08:55:56.936Z,98669.44
2023-04-24T08:58:27.052Z,98667.03
2023-04-24T09:00:55.698Z,98667.69
2023-04-24T09:03:23.841Z,98676.00
2023-04-24T09:05:51.699Z,98675.22
2023-04-24T09:08:19.990Z,98674.28
2023-04-24T09:10:48.567Z,98667.56
2023-04-24T09:13:17.412Z,98678.66
2023-04-24T09:15:44.202Z,98668.22
2023-04-24T09:18:11.445Z,98667.25
2023-04-24T09:21:05.242Z,98676.09
2023-04-24T09:23:33.505Z,98673.63
2023-04-24T09:26:02.464Z,98671.59
2023-04-24T09:28:40.969Z,98674.25
2023-04-24T09:31:14.957Z,98671.16
2023-04-24T09:33:55.245Z,98669.34
2023-04-24T09:36:29.074Z,98673.50
2023-04-24T09:39:00.853Z,98672.59
2023-04-24T09:41:29.412Z,98682.25
2023-04-24T09:43:57.712Z,98688.53
2023-04-24T09:46:34.128Z,98687.00
2023-04-24T09:49:25.441Z,98690.63
2023-04-24T09:51:52.436Z,98691.78
2023-04-24T09:54:22.130Z,98684.91
2023-04-24T09:56:51.463Z,98694.09
2023-04-24T09:59:19.955Z,98696.78
2023-04-24T10:01:49.451Z,98703.72
2023-04-24T10:04:19.646Z,98707.31
2023-04-24T10:06:46.527Z,98697.59
2023-04-24T10:09:15.059Z,98699.50
2023-04-24T10:11:46.901Z,98697.59
2023-04-24T10:14:16.195Z,98697.03
2023-04-24T10:16:44.377Z,98705.78
2023-04-24T10:19:14.748Z,98714.44
2023-04-24T10:21:43.526Z,98710.41
2023-04-24T10:24:11.235Z,98714.69
2023-04-24T10:26:38.407Z,98720.03
2023-04-24T10:29:11.013Z,98726.50
2023-04-24T10:31:41.297Z,98731.41
2023-04-24T10:34:10.709Z,98735.00
2023-04-24T10:36:41.755Z,98738.81
2023-04-24T10:39:12.798Z,98736.41
2023-04-24T10:41:39.540Z,98737.78
2023-04-24T10:44:12.063Z,98741.66
2023-04-24T10:46:40.735Z,98752.13
2023-04-24T10:49:11.670Z,98749.91
2023-04-24T10:51:48.406Z,98756.47
2023-04-24T10:54:59.318Z,98762.16
2023-04-24T10:57:30.024Z,98775.38
2023-04-24T11:00:21.668Z,98780.50
2023-04-24T11:02:53.280Z,98777.28
2023-04-24T11:05:21.842Z,98783.38
2023-04-24T11:08:28.447Z,98801.63
2023-04-24T11:10:56.274Z,98796.50
2023-04-24T11:13:25.175Z,98798.56
2023-04-24T11:16:31.336Z,98812.38
2023-04-24T11:19:25.993Z,98810.81
2023-04-24T11:22:04.007Z,98815.19
2023-04-24T11:24:38.433Z,98819.56
2023-04-24T11:27:15.880Z,98819.81
2023-04-24T11:30:01.219Z,98819.63
2023-04-24T11:32:34.219Z,98820.59
2023-04-24T11:35:03.725Z,98829.34
2023-04-24T11:37:37.128Z,98837.97
2023-04-24T11:40:10.049Z,98840.22
2023-04-24T11:42:50.346Z,98852.47
2023-04-24T11:45:18.587Z,98863.03
2023-04-24T11:47:46.248Z,98857.78
2023-04-24T11:50:18.491Z,98870.22
2023-04-24T11:52:46.742Z,98875.00
2023-04-24T11:55:16.921Z,98874.09
2023-04-24T11:57:45.573Z,98872.47
2023-04-24T12:00:21.789Z,98874.88
2023-04-24T12:02:49.771Z,98888.16
2023-04-24T12:05:27.459Z,98879.56
2023-04-24T12:07:55.049Z,98890.09
2023-04-24T12:10:28.176Z,98900.72
2023-04-24T12:12:57.104Z,98907.78
2023-04-24T12:15:24.693Z,98918.22
2023-04-24T12:17:53.009Z,98916.66
2023-04-24T12:20:29.180Z,98922.50
2023-04-24T12:22:57.629Z,98937.03
2023-04-24T12:25:27.166Z,98939.53
2023-04-24T12:28:13.564Z,98943.22
2023-04-24T12:30:49.179Z,98951.13
2023-04-24T12:33:21.179Z,98947.34
2023-04-24T12:35:49.525Z,98954.56
2023-04-24T12:38:19.140Z,98963.44
2023-04-24T12:40:46.183Z,98957.97
2023-04-24T12:43:20.706Z,98979.22
2023-04-24T12:45:49.291Z,98972.09
2023-04-24T12:48:16.527Z,98974.94
2023-04-24T12:50:46.464Z,98983.78
2023-04-24T12:53:14.873Z,98984.03
2023-04-24T12:55:42.176Z,98991.09
2023-04-24T12:58:09.167Z,98997.25
2023-04-24T13:00:36.444Z,98994.88
2023-04-24T13:03:04.337Z,99000.06
2023-04-24T13:05:32.019Z,99001.78
2023-04-24T13:07:58.819Z,98995.97
2023-04-24T13:10:26.261Z,98998.50
2023-04-24T13:12:53.051Z,99008.00
2023-04-24T13:15:20.360Z,99006.13
2023-04-24T13:17:47.054Z,99008.50
2023-04-24T13:20:14.341Z,99014.59
2023-04-24T13:22:40.981Z,99019.19
2023-04-24T13:25:08.695Z,99025.69
2023-04-24T13:27:35.535Z,99021.44
2023-04-24T13:30:02.940Z,99041.00
2023-04-24T13:32:29.852Z,99032.78
2023-04-24T13:34:57.988Z,99036.94
2023-04-24T13:37:24.570Z,99040.38
2023-04-24T13:39:52.550Z,99038.88
2023-04-24T13:42:19.819Z,99045.13
2023-04-24T13:44:47.375Z,99047.72
2023-04-24T13:47:14.328Z,99049.25
2023-04-24T13:49:41.491Z,99050.59
2023-04-24T13:52:08.486Z,99040.66
2023-04-24T13:54:35.850Z,99052.00
2023-04-24T13:57:03.834Z,99043.78
2023-04-24T13:59:31.129Z,99050.03
2023-04-24T14:01:57.790Z,99052.22
2023-04-24T14:04:25.336Z,99050.53
2023-04-24T14:06:52.250Z,99054.09
2023-04-24T14:09:19.372Z,99046.69
2023-04-24T14:11:45.957Z,99053.47
2023-04-24T14:14:13.028Z,99057.84
2023-04-24T14:16:39.794Z,99049.72
2023-04-24T14:19:07.317Z,99062.31
2023-04-24T14:21:34.474Z,99060.03
2023-04-24T14:24:01.666Z,99059.41
2023-04-24T14:26:28.350Z,99068.50
2023-04-24T14:29:03.976Z,99060.38
2023-04-24T14:31:38.311Z,99064.81
2023-04-24T14:34:05.552Z,99064.03
2023-04-24T14:36:32.494Z,99071.00
2023-04-24T14:38:59.566Z,99076.31
2023-04-24T14:41:27.317Z,99070.81
2023-04-24T14:43:54.366Z,99077.63
2023-04-24T14:46:21.075Z,99073.41
2023-04-24T14:48:48.444Z,99078.56
2023-04-24T14:51:15.202Z,99083.16
2023-04-24T14:53:42.513Z,99088.88
2023-04-24T14:56:09.100Z,99086.00
2023-04-24T14:58:36.377Z,99086.28
2023-04-24T15:01:02.999Z,99084.75
2023-04-24T15:03:30.891Z,99095.97
2023-04-24T15:05:57.895Z,99095.81
2023-04-24T15:08:25.316Z,99102.91
2023-04-24T15:10:52.168Z,99105.03
2023-04-24T15:13:20.116Z,99101.88
2023-04-24T15:15:49.681Z,99105.63
2023-04-24T15:18:16.878Z,99101.03
2023-04-24T15:20:43.676Z,99108.22
2023-04-24T15:23:11.356Z,99114.56
2023-04-24T15:25:39.070Z,99118.38
2023-04-24T15:28:06.647Z,99120.66
2023-04-24T15:30:33.506Z,99139.09
2023-04-24T15:33:02.081Z,99129.97
2023-04-24T15:35:29.110Z,99125.59
2023-04-24T15:37:56.345Z,99133.19
2023-04-24T15:40:23.261Z,99128.94
2023-04-24T15:42:51.078Z,99126.81
2023-04-24T15:45:17.874Z,99125.91
2023-04-24T15:47:47.403Z,99131.13
2023-04-24T15:50:16.338Z,99132.06
2023-04-24T15:52:46.432Z,99137.16
2023-04-24T15:55:13.071Z,99136.00
2023-04-24T15:57:40.974Z,99150.81
2023-04-24T16:00:08.565Z,99136.22
2023-04-24T16:02:41.565Z,99138.78
2023-04-24T16:05:08.760Z,99146.22
2023-04-24T16:07:36.458Z,99145.84
2023-04-24T16:10:03.269Z,99153.66
2023-04-24T16:12:30.620Z,99152.06
2023-04-24T16:14:57.299Z,99156.53
2023-04-24T16:17:24.515Z,99146.38
2023-04-24T16:19:51.248Z,99154.56
2023-04-24T16:22:18.498Z,99153.84
2023-04-24T16:24:47.087Z,99152.59
2023-04-24T16:27:15.464Z,99157.22
2023-04-24T16:29:42.020Z,99159.94
2023-04-24T16:32:10.658Z,99160.66
2023-04-24T16:34:37.507Z,99168.47
2023-04-24T16:37:05.790Z,99163.16
2023-04-24T16:39:32.519Z,99164.38
2023-04-24T16:42:00.213Z,99171.50
2023-04-24T16:44:28.040Z,99170.91
2023-04-24T16:46:55.607Z,99171.22
2023-04-24T16:49:23.853Z,99165.41
2023-04-24T16:51:51.347Z,99164.63
2023-04-24T16:54:17.955Z,99177.91
2023-04-24T16:56:45.307Z,99175.84
2023-04-24T16:59:12.279Z,99180.13
2023-04-24T17:01:39.794Z,99186.34
2023-04-24T17:04:06.565Z,99184.44
2023-04-24T17:06:33.996Z,99198.72
2023-04-24T17:09:00.821Z,99197.78
2023-04-24T17:11:29.858Z,99197.28
2023-04-24T17:13:59.798Z,99194.63
2023-04-24T17:16:27.739Z,99201.72
2023-04-24T17:18:54.385Z,99192.13
2023-04-24T17:21:21.647Z,99204.38
2023-04-24T17:23:48.198Z,99199.94
2023-04-24T17:26:15.656Z,99197.28
2023-04-24T17:28:42.344Z,99204.75
2023-04-24T17:31:09.760Z,99198.66
2023-04-24T17:33:36.386Z,99199.50
2023-04-24T17:36:03.419Z,99198.94
2023-04-24T17:38:30.410Z,99204.41
2023-04-24T17:40:58.675Z,99193.91
2023-04-24T17:43:25.408Z,99194.53
2023-04-24T17:45:58.274Z,99188.31
2023-04-24T17:48:25.700Z,99193.91
2023-04-24T17:50:53.306Z,99202.66
2023-04-24T17:53:20.207Z,99195.84
2023-04-24T17:55:47.573Z,99196.06
2023-04-24T17:58:14.936Z,99196.19
2023-04-24T18:00:42.205Z,99199.06
2023-04-24T18:03:09.580Z,99199.25
2023-04-24T18:05:39.338Z,99201.91
2023-04-24T18:08:06.204Z,99193.16
2023-04-24T18:10:37.365Z,99204.75
2023-04-24T18:13:04.966Z,99207.63
2023-04-24T18:15:32.104Z,99216.66
2023-04-24T18:17:59.561Z,99214.00
2023-04-24T18:20:26.658Z,99214.91
2023-04-24T18:22:54.598Z,99220.22
2023-04-24T18:25:26.385Z,99217.38
2023-04-24T18:27:54.877Z,99213.91
2023-04-24T18:30:22.533Z,99213.91
2023-04-24T18:32:51.088Z,99217.56
2023-04-24T18:35:19.464Z,99228.84
2023-04-24T18:37:46.358Z,99228.13
2023-04-24T18:40:14.889Z,99225.66
2023-04-24T18:42:41.948Z,99233.97
2023-04-24T18:45:12.412Z,99232.34
2023-04-24T18:47:41.237Z,99231.44
2023-04-24T18:50:08.297Z,99237.66
2023-04-24T18:52:35.511Z,99235.09
2023-04-24T18:55:03.617Z,99236.03
2023-04-24T18:57:31.054Z,99247.16
2023-04-24T18:59:57.649Z,99247.06
2023-04-24T19:02:24.948Z,99254.44
2023-04-24T19:04:51.638Z,99250.88
2023-04-24T19:07:20.062Z,99259.00
2023-04-24T19:09:46.999Z,99258.44
2023-04-24T19:12:14.369Z,99261.94
2023-04-24T19:14:41.110Z,99260.13
2023-04-24T19:17:10.281Z,99264.53
2023-04-24T19:19:37.001Z,99265.31
2023-04-24T19:22:04.643Z,99268.09
2023-04-24T19:24:33.255Z,99269.03
2023-04-24T19:27:00.695Z,99269.94
2023-04-24T19:29:27.284Z,99273.47
2023-04-24T19:31:55.908Z,99279.69
2023-04-24T19:34:22.613Z,99273.84
2023-04-24T19:36:49.594Z,99267.56
2023-04-24T19:39:16.501Z,99283.47
2023-04-24T19:41:43.689Z,99281.81
2023-04-24T19:44:10.510Z,99275.78
2023-04-24T19:46:40.257Z,99281.84
2023-04-24T19:49:06.937Z,99282.25
2023-04-24T19:51:34.374Z,99282.22
2023-04-24T19:54:01.591Z,99285.94
2023-04-24T19:56:28.195Z,99280.78
2023-04-24T19:58:55.090Z,99278.41
2023-04-24T20:01:22.062Z,99289.00
2023-04-24T20:03:48.765Z,99282.91
2023-04-24T20:06:16.162Z,99278.53
2023-04-24T20:08:42.826Z,99284.59
2023-04-24T20:11:10.336Z,99282.91
2023-04-24T20:13:36.949Z,99279.31
2023-04-24T20:16:04.660Z,99287.25
2023-04-24T20:18:31.302Z,99284.56
2023-04-24T20:21:00.206Z,99294.31
2023-04-24T20:23:27.011Z,99288.31
2023-04-24T20:25:58.281Z,99287.34
2023-04-24T20:28:26.292Z,99283.75
